createdAt,value
2023-10-03T00:02:07.780Z,138.11
2023-10-03T00:04:40.185Z,136.21
2023-10-03T00:07:15.091Z,140.18
2023-10-03T00:09:47.820Z,136.34
2023-10-03T00:12:20.528Z,139.26
2023-10-03T00:14:53.032Z,138.26
2023-10-03T00:17:25.456Z,143.41
2023-10-03T00:19:57.864Z,133.45
2023-10-03T00:22:32.798Z,141.71
2023-10-03T00:25:06.316Z,140.05
2023-10-03T00:27:39.073Z,139.39
2023-10-03T00:30:13.484Z,139.89
2023-10-03T00:32:47.827Z,138.90
2023-10-03T00:35:22.719Z,137.79
2023-10-03T00:37:58.861Z,142.39
2023-10-03T00:40:33.118Z,144.18
2023-10-03T00:43:05.810Z,139.20
2023-10-03T00:45:39.376Z,142.09
2023-10-03T00:48:13.295Z,137.87
2023-10-03T00:50:47.452Z,144.75
2023-10-03T00:53:23.351Z,143.14
2023-10-03T00:56:00.740Z,145.34
2023-10-03T00:58:33.873Z,137.85
2023-10-03T01:01:07.118Z,142.04
2023-10-03T01:03:42.446Z,147.18
2023-10-03T01:06:17.033Z,146.48
2023-10-03T01:08:53.562Z,145.74
2023-10-03T01:11:26.606Z,138.03
2023-10-03T01:14:01.887Z,141.39
2023-10-03T01:16:36.204Z,140.90
2023-10-03T01:19:15.735Z,139.14
2023-10-03T01:21:48.493Z,141.49
2023-10-03T01:24:28.229Z,137.94
2023-10-03T01:27:00.661Z,136.70
2023-10-03T01:29:33.112Z,140.89
2023-10-03T01:32:05.564Z,141.04
2023-10-03T01:34:38.023Z,138.45
2023-10-03T01:37:10.370Z,135.56
2023-10-03T01:39:45.289Z,138.30
2023-10-03T01:42:17.929Z,136.29
2023-10-03T01:44:51.741Z,138.86
2023-10-03T01:47:24.128Z,135.11
2023-10-03T01:49:56.552Z,133.45
2023-10-03T01:52:29.190Z,136.70
2023-10-03T01:55:04.192Z,140.39
2023-10-03T01:57:36.615Z,139.74
2023-10-03T02:00:21.175Z,136.79
2023-10-03T02:02:54.397Z,137.69
2023-10-03T02:05:28.849Z,137.46
2023-10-03T02:08:05.524Z,138.96
2023-10-03T02:10:40.859Z,138.10
2023-10-03T02:13:16.354Z,136.88
2023-10-03T02:15:51.105Z,138.66
2023-10-03T02:18:25.772Z,136.86
2023-10-03T02:21:02.848Z,134.59
2023-10-03T02:23:36.649Z,136.69
2023-10-03T02:26:17.707Z,134.53
2023-10-03T02:28:51.027Z,137.41
2023-10-03T02:31:23.444Z,135.78
2023-10-03T02:33:57.271Z,136.56
2023-10-03T02:36:29.597Z,130.65
2023-10-03T02:39:02.306Z,129.95
2023-10-03T02:41:38.172Z,129.81
2023-10-03T02:44:11.516Z,126.29
2023-10-03T02:46:43.862Z,124.97
2023-10-03T02:49:16.432Z,124.98
2023-10-03T02:51:50.524Z,124.77
2023-10-03T02:54:24.088Z,120.53
2023-10-03T02:56:59.090Z,118.69
2023-10-03T02:59:32.609Z,116.54
2023-10-03T03:02:06.917Z,117.31
2023-10-03T03:04:40.129Z,118.71
2023-10-03T03:07:14.172Z,117.71
2023-10-03T03:09:46.606Z,115.56
2023-10-03T03:12:22.843Z,119.16
2023-10-03T03:14:57.511Z,118.34
2023-10-03T03:17:30.041Z,109.01
2023-10-03T03:20:12.334Z,114.00
2023-10-03T03:22:44.805Z,111.18
2023-10-03T03:25:23.103Z,108.11
2023-10-03T03:27:58.849Z,110.08
2023-10-03T03:30:46.279Z,106.11
2023-10-03T03:33:21.371Z,106.89
2023-10-03T03:35:53.872Z,106.00
2023-10-03T03:38:26.729Z,99.44
2023-10-03T03:41:06.039Z,100.71
2023-10-03T03:43:41.270Z,95.79
2023-10-03T03:46:14.000Z,93.03
2023-10-03T03:48:48.345Z,90.80
2023-10-03T03:51:21.120Z,87.44
2023-10-03T03:53:54.406Z,84.04
2023-10-03T03:56:26.852Z,80.36
2023-10-03T03:59:01.949Z,77.56
2023-10-03T04:01:34.930Z,75.89
2023-10-03T04:04:11.243Z,71.02
2023-10-03T04:06:44.114Z,65.31
2023-10-03T04:09:17.498Z,63.06
2023-10-03T04:11:50.107Z,62.09
2023-10-03T04:14:26.155Z,59.04
2023-10-03T04:16:58.385Z,58.74
2023-10-03T04:19:30.723Z,56.50
2023-10-03T04:22:03.266Z,56.01
2023-10-03T04:24:35.591Z,57.29
2023-10-03T04:27:08.551Z,57.71
2023-10-03T04:29:43.666Z,57.88
2023-10-03T04:32:15.961Z,62.13
2023-10-03T04:34:48.384Z,60.09
2023-10-03T04:37:20.780Z,58.97
2023-10-03T04:39:53.109Z,56.90
2023-10-03T04:42:25.489Z,53.34
2023-10-03T04:45:00.510Z,53.05
2023-10-03T04:47:34.322Z,52.04
2023-10-03T04:50:06.717Z,51.01
2023-10-03T04:52:39.087Z,48.76
2023-10-03T04:55:14.653Z,50.62
2023-10-03T04:57:47.392Z,49.87
2023-10-03T05:00:24.499Z,52.59
2023-10-03T05:02:59.089Z,50.31
2023-10-03T05:05:33.783Z,49.42
2023-10-03T05:08:06.719Z,49.56
2023-10-03T05:10:40.381Z,49.17
2023-10-03T05:13:13.390Z,49.91
2023-10-03T05:15:48.255Z,48.86
2023-10-03T05:18:20.550Z,44.32
2023-10-03T05:20:53.198Z,48.23
2023-10-03T05:23:25.707Z,44.66
2023-10-03T05:25:58.550Z,45.02
2023-10-03T05:28:30.952Z,41.81
2023-10-03T05:31:05.996Z,42.77
2023-10-03T05:33:38.386Z,40.56
2023-10-03T05:36:11.280Z,39.60
2023-10-03T05:38:43.573Z,40.66
2023-10-03T05:41:24.799Z,37.87
2023-10-03T05:43:57.768Z,36.96
2023-10-03T05:46:33.544Z,37.64
2023-10-03T05:49:05.969Z,37.61
2023-10-03T05:51:38.341Z,37.22
2023-10-03T05:54:10.693Z,35.36
2023-10-03T05:56:43.018Z,34.48
2023-10-03T05:59:16.203Z,33.76
2023-10-03T06:01:51.275Z,32.73
2023-10-03T06:04:23.843Z,35.39
2023-10-03T06:06:56.255Z,35.92
2023-10-03T06:09:28.499Z,34.87
2023-10-03T06:12:00.910Z,34.84
2023-10-03T06:14:34.894Z,35.31
2023-10-03T06:17:11.346Z,34.95
2023-10-03T06:19:43.691Z,35.46
2023-10-03T06:22:16.644Z,37.27
2023-10-03T06:24:50.509Z,36.01
2023-10-03T06:27:22.838Z,38.09
2023-10-03T06:29:55.344Z,35.64
2023-10-03T06:32:30.622Z,36.15
2023-10-03T06:35:06.447Z,35.36
2023-10-03T06:37:39.533Z,36.64
2023-10-03T06:40:15.263Z,34.89
2023-10-03T06:42:47.699Z,33.32
2023-10-03T06:45:22.554Z,35.76
2023-10-03T06:47:57.604Z,31.74
2023-10-03T06:50:30.040Z,31.21
2023-10-03T06:53:02.559Z,29.87
2023-10-03T06:55:37.057Z,27.87
2023-10-03T06:58:12.088Z,27.79
2023-10-03T07:00:45.048Z,23.96
2023-10-03T07:03:20.908Z,23.96
2023-10-03T07:05:53.603Z,23.27
2023-10-03T07:08:26.688Z,22.84
2023-10-03T07:11:00.118Z,23.39
2023-10-03T07:13:35.564Z,22.27
2023-10-03T07:16:10.317Z,23.76
2023-10-03T07:18:48.405Z,22.73
2023-10-03T07:21:21.114Z,21.98
2023-10-03T07:23:54.795Z,19.95
2023-10-03T07:26:29.312Z,18.61
2023-10-03T07:29:03.562Z,20.23
2023-10-03T07:31:38.463Z,18.41
2023-10-03T07:34:18.859Z,17.04
2023-10-03T07:36:51.145Z,15.98
2023-10-03T07:39:26.450Z,16.43
2023-10-03T07:41:58.858Z,17.31
2023-10-03T07:44:31.609Z,17.05
2023-10-03T07:47:05.163Z,16.34
2023-10-03T07:49:42.608Z,14.81
2023-10-03T07:52:15.383Z,16.36
2023-10-03T07:54:50.072Z,16.70
2023-10-03T07:57:22.358Z,15.67
2023-10-03T07:59:54.974Z,15.93
2023-10-03T08:02:33.761Z,14.42
2023-10-03T08:05:09.890Z,11.53
2023-10-03T08:07:44.059Z,10.84
2023-10-03T08:10:16.680Z,10.64
2023-10-03T08:12:53.996Z,10.06
2023-10-03T08:15:33.008Z,9.97
2023-10-03T08:18:05.902Z,10.87
2023-10-03T08:20:41.383Z,12.41
2023-10-03T08:23:15.220Z,11.27
2023-10-03T08:25:47.469Z,11.96
2023-10-03T08:28:22.062Z,10.41
2023-10-03T08:30:56.872Z,9.30
2023-10-03T08:33:29.311Z,9.52
2023-10-03T08:36:04.460Z,7.27
2023-10-03T08:38:44.916Z,7.06
2023-10-03T08:41:27.556Z,6.76
2023-10-03T08:44:07.018Z,6.66
2023-10-03T08:46:42.772Z,6.79
2023-10-03T08:49:19.074Z,5.91
2023-10-03T08:51:54.931Z,6.16
2023-10-03T08:54:37.965Z,7.69
2023-10-03T08:57:11.301Z,8.51
2023-10-03T08:59:44.099Z,8.15
2023-10-03T09:02:25.746Z,9.46
2023-10-03T09:04:58.663Z,8.67
2023-10-03T09:07:47.730Z,9.17
2023-10-03T09:10:26.785Z,8.14
2023-10-03T09:13:05.434Z,7.51
2023-10-03T09:15:39.129Z,6.03
2023-10-03T09:18:16.575Z,5.84
2023-10-03T09:20:51.314Z,6.31
2023-10-03T09:23:26.311Z,6.19
2023-10-03T09:25:59.940Z,5.97
2023-10-03T09:28:37.044Z,5.24
2023-10-03T09:31:12.296Z,5.89
2023-10-03T09:33:46.980Z,6.04
2023-10-03T09:36:20.185Z,6.18
2023-10-03T09:38:57.185Z,5.57
2023-10-03T09:41:31.430Z,6.21
2023-10-03T09:44:06.744Z,5.37
2023-10-03T09:46:42.722Z,5.24
2023-10-03T09:49:16.252Z,5.69
2023-10-03T09:51:52.954Z,4.84
2023-10-03T09:54:32.116Z,6.02
2023-10-03T09:57:16.661Z,6.50
2023-10-03T09:59:51.123Z,7.36
2023-10-03T10:02:32.440Z,7.10
2023-10-03T10:05:20.788Z,8.39
2023-10-03T10:08:08.287Z,8.40
2023-10-03T10:10:43.230Z,8.18
2023-10-03T10:13:22.416Z,8.19
2023-10-03T10:16:22.460Z,7.63
2023-10-03T10:19:06.087Z,7.39
2023-10-03T10:21:41.001Z,7.86
2023-10-03T10:24:38.129Z,7.09
2023-10-03T10:27:25.819Z,6.49
2023-10-03T10:30:14.995Z,6.97
2023-10-03T10:33:17.817Z,7.59
2023-10-03T10:35:58.117Z,5.76
2023-10-03T10:38:58.974Z,6.49
2023-10-03T10:41:29.079Z,7.24
2023-10-03T10:44:18.429Z,5.74
2023-10-03T10:46:53.532Z,7.28
2023-10-03T10:50:09.651Z,7.96
2023-10-03T10:52:55.511Z,8.48
2023-10-03T10:55:29.363Z,7.92
2023-10-03T10:58:10.008Z,7.80
2023-10-03T11:00:46.103Z,7.86
2023-10-03T11:03:26.147Z,7.85
2023-10-03T11:06:00.325Z,8.78
2023-10-03T11:08:32.751Z,8.69
2023-10-03T11:11:05.048Z,8.20
2023-10-03T11:13:49.998Z,9.11
2023-10-03T11:16:32.963Z,9.54
2023-10-03T11:19:07.931Z,9.62
2023-10-03T11:21:41.793Z,9.46
2023-10-03T11:24:16.455Z,10.77
2023-10-03T11:26:51.582Z,9.41
2023-10-03T11:29:40.835Z,9.76
2023-10-03T11:32:30.599Z,10.94
2023-10-03T11:35:04.250Z,11.08
2023-10-03T11:37:41.451Z,11.02
2023-10-03T11:40:17.743Z,12.60
2023-10-03T11:42:51.908Z,11.60
2023-10-03T11:45:30.623Z,11.98
2023-10-03T11:48:12.541Z,13.25
2023-10-03T11:50:45.773Z,13.05
2023-10-03T11:53:20.170Z,13.18
2023-10-03T11:55:57.831Z,15.27
2023-10-03T11:58:30.750Z,14.13
2023-10-03T12:01:03.412Z,14.80
2023-10-03T12:03:39.443Z,15.49
2023-10-03T12:06:11.912Z,15.73
2023-10-03T12:08:44.915Z,15.41
2023-10-03T12:11:17.788Z,14.69
2023-10-03T12:13:50.108Z,15.13
2023-10-03T12:16:23.701Z,15.58
2023-10-03T12:18:59.187Z,16.28
2023-10-03T12:21:31.648Z,18.32
2023-10-03T12:24:04.557Z,16.41
2023-10-03T12:26:37.651Z,16.61
2023-10-03T12:29:11.901Z,16.25
2023-10-03T12:31:45.745Z,15.92
2023-10-03T12:34:20.739Z,17.20
2023-10-03T12:36:53.020Z,16.56
2023-10-03T12:39:26.285Z,16.20
2023-10-03T12:41:59.718Z,17.59
2023-10-03T12:44:32.358Z,16.57
2023-10-03T12:47:05.595Z,18.17
2023-10-03T12:49:42.103Z,17.79
2023-10-03T12:52:14.358Z,17.51
2023-10-03T12:54:46.853Z,16.74
2023-10-03T12:57:19.323Z,16.08
2023-10-03T12:59:53.672Z,17.18
2023-10-03T13:02:27.655Z,16.39
2023-10-03T13:05:06.603Z,17.53
2023-10-03T13:07:41.723Z,16.07
2023-10-03T13:10:15.034Z,16.36
2023-10-03T13:12:48.141Z,16.01
2023-10-03T13:15:22.198Z,15.24
2023-10-03T13:17:57.858Z,16.51
2023-10-03T13:20:32.746Z,15.86
2023-10-03T13:23:06.160Z,16.49
2023-10-03T13:25:39.326Z,15.74
2023-10-03T13:28:12.191Z,15.59
2023-10-03T13:30:44.726Z,13.67
2023-10-03T13:33:17.217Z,15.54
2023-10-03T13:35:52.198Z,14.66
2023-10-03T13:38:24.697Z,15.28
2023-10-03T13:40:56.947Z,12.82
2023-10-03T13:43:31.097Z,14.05
2023-10-03T13:46:03.539Z,13.94
2023-10-03T13:48:37.125Z,15.09
2023-10-03T13:51:16.237Z,14.65
2023-10-03T13:53:48.843Z,13.27
2023-10-03T13:56:22.547Z,13.66
2023-10-03T13:58:54.813Z,14.74
2023-10-03T14:01:27.201Z,13.79
2023-10-03T14:03:59.589Z,13.43
2023-10-03T14:06:35.527Z,14.69
2023-10-03T14:09:10.882Z,13.44
2023-10-03T14:11:43.430Z,14.39
2023-10-03T14:14:15.824Z,14.35
2023-10-03T14:16:48.113Z,12.82
2023-10-03T14:19:20.992Z,13.89
2023-10-03T14:21:55.945Z,15.39
2023-10-03T14:24:28.390Z,15.26
2023-10-03T14:27:00.941Z,15.53
2023-10-03T14:29:33.313Z,13.88
2023-10-03T14:32:05.653Z,14.84
2023-10-03T14:34:38.097Z,16.79
2023-10-03T14:37:14.593Z,16.22
2023-10-03T14:39:46.935Z,15.31
2023-10-03T14:42:19.294Z,14.09
2023-10-03T14:44:51.868Z,14.86
2023-10-03T14:47:24.223Z,16.08
2023-10-03T14:49:56.700Z,15.07
2023-10-03T14:52:31.868Z,15.29
2023-10-03T14:55:05.897Z,15.62
2023-10-03T14:57:38.194Z,16.21
2023-10-03T15:00:12.707Z,16.10
2023-10-03T15:02:45.624Z,16.56
2023-10-03T15:05:18.926Z,14.56
2023-10-03T15:07:53.855Z,15.51
2023-10-03T15:10:26.111Z,16.54
2023-10-03T15:13:00.084Z,15.67
2023-10-03T15:15:33.978Z,14.79
2023-10-03T15:18:06.382Z,16.76
2023-10-03T15:20:38.918Z,15.47
2023-10-03T15:23:13.956Z,14.19
2023-10-03T15:25:49.507Z,15.09
2023-10-03T15:28:21.932Z,14.94
2023-10-03T15:30:57.121Z,14.46
2023-10-03T15:33:30.064Z,14.92
2023-10-03T15:36:02.482Z,15.58
2023-10-03T15:38:38.352Z,15.25
2023-10-03T15:41:10.645Z,17.01
2023-10-03T15:43:44.675Z,17.19
2023-10-03T15:46:17.591Z,18.17
2023-10-03T15:48:49.936Z,16.44
2023-10-03T15:51:25.425Z,18.07
2023-10-03T15:54:00.781Z,16.06
2023-10-03T15:56:34.129Z,17.46
2023-10-03T15:59:10.223Z,17.54
2023-10-03T16:01:43.136Z,17.59
2023-10-03T16:04:15.818Z,16.56
2023-10-03T16:06:48.859Z,16.87
2023-10-03T16:09:26.297Z,16.67
2023-10-03T16:11:59.819Z,17.61
2023-10-03T16:14:32.149Z,17.63
2023-10-03T16:17:04.523Z,18.74
2023-10-03T16:19:37.909Z,17.33
2023-10-03T16:22:10.880Z,17.77
2023-10-03T16:24:45.917Z,18.14
2023-10-03T16:27:18.484Z,17.19
2023-10-03T16:29:50.883Z,18.30
2023-10-03T16:32:23.267Z,17.69
2023-10-03T16:34:55.646Z,17.96
2023-10-03T16:37:28.121Z,17.55
2023-10-03T16:40:04.651Z,16.97
2023-10-03T16:42:37.841Z,16.08
2023-10-03T16:45:11.687Z,16.74
2023-10-03T16:47:44.856Z,18.91
2023-10-03T16:50:18.208Z,18.71
2023-10-03T16:52:52.303Z,17.96
2023-10-03T16:55:27.347Z,18.54
2023-10-03T16:58:01.594Z,17.11
2023-10-03T17:00:36.304Z,17.23
2023-10-03T17:03:09.723Z,17.52
2023-10-03T17:05:44.406Z,17.91
2023-10-03T17:08:17.200Z,18.92
2023-10-03T17:10:52.296Z,17.80
2023-10-03T17:13:24.756Z,16.33
2023-10-03T17:15:57.085Z,18.12
2023-10-03T17:18:31.557Z,15.66
2023-10-03T17:21:09.526Z,17.08
2023-10-03T17:23:44.238Z,18.31
2023-10-03T17:26:22.558Z,17.33
2023-10-03T17:28:58.510Z,19.34
2023-10-03T17:31:31.178Z,21.40
2023-10-03T17:34:05.244Z,21.03
2023-10-03T17:36:37.793Z,17.91
2023-10-03T17:39:12.248Z,18.84
2023-10-03T17:41:48.171Z,18.31
2023-10-03T17:44:22.046Z,18.30
2023-10-03T17:46:54.339Z,24.34
2023-10-03T17:49:26.907Z,23.40
2023-10-03T17:51:59.219Z,21.86
2023-10-03T17:54:34.266Z,22.34
2023-10-03T17:57:10.644Z,20.05
2023-10-03T17:59:50.235Z,19.10
2023-10-03T18:02:35.044Z,22.07
2023-10-03T18:05:08.659Z,20.93
2023-10-03T18:07:43.282Z,20.89
2023-10-03T18:10:18.743Z,21.29
2023-10-03T18:13:01.154Z,21.07
2023-10-03T18:15:33.953Z,21.49
2023-10-03T18:18:06.351Z,20.72
2023-10-03T18:20:38.858Z,21.21
2023-10-03T18:23:11.776Z,21.13
2023-10-03T18:25:45.258Z,22.83
2023-10-03T18:28:20.360Z,20.21
2023-10-03T18:30:54.059Z,20.51
2023-10-03T18:33:26.877Z,21.78
2023-10-03T18:35:59.408Z,19.41
2023-10-03T18:38:33.342Z,22.58
2023-10-03T18:41:05.582Z,20.79
2023-10-03T18:43:40.676Z,21.11
2023-10-03T18:46:13.401Z,21.54
2023-10-03T18:48:45.899Z,22.95
2023-10-03T18:51:18.636Z,22.25
2023-10-03T18:53:54.334Z,19.36
2023-10-03T18:56:26.739Z,20.97
2023-10-03T18:59:01.892Z,20.48
2023-10-03T19:01:48.300Z,22.34
2023-10-03T19:04:22.662Z,21.35
2023-10-03T19:06:55.366Z,21.61
2023-10-03T19:09:29.834Z,23.12
2023-10-03T19:12:08.303Z,21.38
2023-10-03T19:14:44.314Z,23.26
2023-10-03T19:17:19.034Z,22.74
2023-10-03T19:19:55.477Z,23.06
2023-10-03T19:22:30.779Z,21.81
2023-10-03T19:25:09.514Z,22.36
2023-10-03T19:27:42.611Z,20.44
2023-10-03T19:30:20.411Z,21.97
2023-10-03T19:32:53.230Z,21.21
2023-10-03T19:35:25.767Z,19.76
2023-10-03T19:37:58.915Z,19.76
2023-10-03T19:40:32.875Z,18.48
2023-10-03T19:43:06.045Z,18.09
2023-10-03T19:45:41.934Z,19.64
2023-10-03T19:48:14.367Z,19.21
2023-10-03T19:50:46.713Z,18.79
2023-10-03T19:53:19.687Z,16.79
2023-10-03T19:55:51.977Z,19.27
2023-10-03T19:58:24.379Z,19.79
2023-10-03T20:00:59.436Z,20.24
2023-10-03T20:03:32.093Z,18.21
2023-10-03T20:06:09.711Z,19.09
2023-10-03T20:08:42.123Z,17.35
2023-10-03T20:11:14.901Z,17.01
2023-10-03T20:13:48.693Z,16.43
2023-10-03T20:16:25.135Z,16.79
2023-10-03T20:18:58.142Z,15.81
2023-10-03T20:21:30.606Z,16.84
2023-10-03T20:24:03.308Z,16.94
2023-10-03T20:26:35.704Z,16.23
2023-10-03T20:29:08.088Z,14.83
2023-10-03T20:31:43.047Z,16.71
2023-10-03T20:34:16.202Z,16.09
2023-10-03T20:36:49.112Z,15.15
2023-10-03T20:39:22.157Z,16.46
2023-10-03T20:41:54.617Z,14.73
2023-10-03T20:44:27.061Z,14.30
2023-10-03T20:47:05.699Z,16.09
2023-10-03T20:49:38.016Z,16.23
2023-10-03T20:52:10.914Z,14.29
2023-10-03T20:54:43.122Z,16.29
2023-10-03T20:57:15.514Z,16.79
2023-10-03T20:59:47.847Z,16.94
2023-10-03T21:02:24.670Z,19.03
2023-10-03T21:04:58.624Z,17.72
2023-10-03T21:07:32.386Z,17.39
2023-10-03T21:10:06.324Z,17.99
2023-10-03T21:12:38.652Z,19.61
2023-10-03T21:15:13.433Z,18.08
2023-10-03T21:17:48.816Z,17.16
2023-10-03T21:20:21.100Z,17.32
2023-10-03T21:22:55.478Z,17.24
2023-10-03T21:25:28.137Z,17.64
2023-10-03T21:28:01.717Z,16.71
2023-10-03T21:30:34.171Z,17.30
2023-10-03T21:33:10.520Z,16.73
2023-10-03T21:35:42.902Z,17.05
2023-10-03T21:38:15.180Z,16.60
2023-10-03T21:40:48.263Z,16.52
2023-10-03T21:43:20.728Z,16.57
2023-10-03T21:45:53.100Z,16.26
2023-10-03T21:48:28.141Z,15.58
2023-10-03T21:51:06.288Z,15.53
2023-10-03T21:53:41.918Z,15.24
2023-10-03T21:56:15.065Z,15.44
2023-10-03T21:58:47.818Z,16.11
2023-10-03T22:01:27.364Z,15.49
2023-10-03T22:04:02.961Z,16.11
2023-10-03T22:06:35.261Z,17.04
2023-10-03T22:09:11.326Z,15.29
2023-10-03T22:11:43.751Z,14.55
2023-10-03T22:14:18.948Z,14.79
2023-10-03T22:16:51.822Z,14.78
2023-10-03T22:19:27.067Z,15.36
2023-10-03T22:21:59.381Z,14.79
2023-10-03T22:24:31.884Z,14.54
2023-10-03T22:27:04.218Z,15.11
2023-10-03T22:29:36.506Z,14.78
2023-10-03T22:32:09.910Z,14.56
2023-10-03T22:34:44.931Z,14.52
2023-10-03T22:37:17.198Z,13.66
2023-10-03T22:39:51.548Z,13.54
2023-10-03T22:42:24.524Z,12.41
2023-10-03T22:44:57.170Z,13.78
2023-10-03T22:47:29.549Z,12.56
2023-10-03T22:50:05.408Z,14.58
2023-10-03T22:52:37.786Z,14.24
2023-10-03T22:55:10.630Z,15.51
2023-10-03T22:57:42.931Z,14.13
2023-10-03T23:00:16.506Z,14.92
2023-10-03T23:02:48.895Z,12.85
2023-10-03T23:05:24.131Z,13.17
2023-10-03T23:07:56.365Z,13.44
2023-10-03T23:10:29.192Z,13.65
2023-10-03T23:13:01.704Z,13.56
2023-10-03T23:15:34.065Z,14.18
2023-10-03T23:18:06.472Z,13.81
2023-10-03T23:20:44.641Z,13.75
2023-10-03T23:23:17.334Z,13.43
2023-10-03T23:25:49.625Z,14.03
2023-10-03T23:28:22.054Z,14.42
2023-10-03T23:30:54.373Z,12.91
2023-10-03T23:33:28.178Z,14.87
2023-10-03T23:36:04.236Z,14.34
2023-10-03T23:38:37.081Z,15.83
2023-10-03T23:41:10.917Z,14.94
2023-10-03T23:43:43.276Z,12.52
2023-10-03T23:46:15.590Z,13.49
2023-10-03T23:48:49.269Z,13.44
2023-10-03T23:51:24.394Z,13.94
2023-10-03T23:53:57.721Z,15.10
2023-10-03T23:56:35.019Z,14.09
2023-10-03T23:59:11.116Z,13.61
